Accueil
METAR-TAF:

METAR-TAF

Aéroports :

Paris-Orly, France

Aéroport de Paris-Orly

latitude: 48-44N, longitude: 002-24E, altitude: 89 m

Observation

Le bulletin a été fait il y a 27 minutes, à 17:00 UTC
Vent 10 kt de ouest, variant entre sud-ouest et ouest/nord-ouest
Température 27°C
Humidité 45%
Pression 1014 hPa
Visibilité 10 km ou plus
pas de nuages en-dessous de 1500 mètres et pas de cumulonimbus.

METAR: LFPO 251700Z 26010KT 220V290 CAVOK 27/14 Q1014 NOSIG

Heure: 19:27 (17:27 UTC)


TAF: absent

Observations et prévisions météorologiques de plus de 4000 aéroports (messages METAR et TAF).

Les stations disponibles sont représentées par des disques jaunes et rouges sur la carte.

Passer la souris dessus pour voir le nom de la station.

Cliquer dessus pour voir les observations et prévisions météorologiques.

Pour changer de carte: cliquez sur les boutons verts avec une croix noire pour zoomer, sur le bouton vert avec un tiret pour effectuer un zoom arrière, ou sur les flèches vertes pour les cartes adjacentes.


METAR-TAF: